createdAt,value
2022-08-29T00:01:23.195Z,13.88
2022-08-29T00:03:50.492Z,13.85
2022-08-29T00:06:18.236Z,13.68
2022-08-29T00:08:45.308Z,13.68
2022-08-29T00:11:13.353Z,13.84
2022-08-29T00:13:40.943Z,13.81
2022-08-29T00:16:08.691Z,13.53
2022-08-29T00:18:37.060Z,13.61
2022-08-29T00:21:04.941Z,13.72
2022-08-29T00:23:32.138Z,13.54
2022-08-29T00:25:59.164Z,13.62
2022-08-29T00:28:26.806Z,13.52
2022-08-29T00:30:54.044Z,13.34
2022-08-29T00:33:21.150Z,13.24
2022-08-29T00:35:48.264Z,13.19
2022-08-29T00:38:18.276Z,13.21
2022-08-29T00:40:58.062Z,13.32
2022-08-29T00:43:31.377Z,13.33
2022-08-29T00:46:41.426Z,13.46
2022-08-29T00:49:39.329Z,13.16
2022-08-29T00:52:27.038Z,13.22
2022-08-29T00:54:55.760Z,13.19
2022-08-29T00:57:26.368Z,13.11
2022-08-29T00:59:54.247Z,13.07
2022-08-29T01:02:21.687Z,13.12
2022-08-29T01:04:48.752Z,13.06
2022-08-29T01:07:15.967Z,13.02
2022-08-29T01:09:46.880Z,13.09
2022-08-29T01:12:17.877Z,13.19
2022-08-29T01:14:53.485Z,13.09
2022-08-29T01:17:42.705Z,13.01
2022-08-29T01:20:20.817Z,12.99
2022-08-29T01:23:25.126Z,12.95
2022-08-29T01:25:52.772Z,13.03
2022-08-29T01:28:33.568Z,13.23
2022-08-29T01:31:11.290Z,12.94
2022-08-29T01:33:48.410Z,12.82
2022-08-29T01:36:25.770Z,12.78
2022-08-29T01:38:54.186Z,12.68
2022-08-29T01:41:22.703Z,12.71
2022-08-29T01:43:56.041Z,12.72
2022-08-29T01:46:34.683Z,12.67
2022-08-29T01:49:07.652Z,12.72
2022-08-29T01:51:37.430Z,12.78
2022-08-29T01:54:07.328Z,12.75
2022-08-29T01:56:44.085Z,12.78
2022-08-29T01:59:17.001Z,12.72
2022-08-29T02:02:05.218Z,12.57
2022-08-29T02:04:32.922Z,12.45
2022-08-29T02:07:00.360Z,12.57
2022-08-29T02:09:28.911Z,12.47
2022-08-29T02:11:58.158Z,12.43
2022-08-29T02:14:26.392Z,12.56
2022-08-29T02:16:53.498Z,12.55
2022-08-29T02:19:20.827Z,12.59
2022-08-29T02:21:48.243Z,12.79
2022-08-29T02:24:26.128Z,12.84
2022-08-29T02:26:57.001Z,12.63
2022-08-29T02:29:26.254Z,12.56
2022-08-29T02:32:12.787Z,12.43
2022-08-29T02:34:44.462Z,12.52
2022-08-29T02:37:12.993Z,12.48
2022-08-29T02:39:40.102Z,12.51
2022-08-29T02:42:07.334Z,12.50
2022-08-29T02:44:34.402Z,12.57
2022-08-29T02:47:01.447Z,12.47
2022-08-29T02:49:28.529Z,12.42
2022-08-29T02:51:57.321Z,12.39
2022-08-29T02:54:24.364Z,12.45
2022-08-29T02:56:51.335Z,12.45
2022-08-29T02:59:18.653Z,12.53
2022-08-29T03:01:45.667Z,12.48
2022-08-29T03:04:12.734Z,12.67
2022-08-29T03:06:39.768Z,12.52
2022-08-29T03:09:09.078Z,12.45
2022-08-29T03:11:36.596Z,12.39
2022-08-29T03:14:03.923Z,12.38
2022-08-29T03:16:31.385Z,12.52
2022-08-29T03:18:58.584Z,12.41
2022-08-29T03:21:27.897Z,12.36
2022-08-29T03:23:59.097Z,12.35
2022-08-29T03:26:26.173Z,12.46
2022-08-29T03:28:53.273Z,12.40
2022-08-29T03:31:21.276Z,12.29
2022-08-29T03:33:48.509Z,12.35
2022-08-29T03:36:15.705Z,12.46
2022-08-29T03:38:47.691Z,12.42
2022-08-29T03:41:29.169Z,12.43
2022-08-29T03:43:58.913Z,12.57
2022-08-29T03:46:27.840Z,12.44
2022-08-29T03:48:55.079Z,12.45
2022-08-29T03:51:22.726Z,12.39
2022-08-29T03:53:52.302Z,12.46
2022-08-29T03:56:19.374Z,12.44
2022-08-29T03:58:52.564Z,12.47
2022-08-29T04:01:27.353Z,12.32
2022-08-29T04:03:57.030Z,12.37
2022-08-29T04:06:30.068Z,12.36
2022-08-29T04:08:58.952Z,12.44
2022-08-29T04:11:28.220Z,12.47
2022-08-29T04:13:55.709Z,12.57
2022-08-29T04:16:30.748Z,12.43
2022-08-29T04:18:58.746Z,12.49
2022-08-29T04:21:26.011Z,12.51
2022-08-29T04:23:54.541Z,12.62
2022-08-29T04:26:37.763Z,12.59
2022-08-29T04:29:09.817Z,12.59
2022-08-29T04:31:38.011Z,12.59
2022-08-29T04:34:07.834Z,12.69
2022-08-29T04:36:38.252Z,12.82
2022-08-29T04:39:06.678Z,12.81
2022-08-29T04:41:34.884Z,12.83
2022-08-29T04:44:03.066Z,12.87
2022-08-29T04:46:30.873Z,12.97
2022-08-29T04:49:03.273Z,13.11
2022-08-29T04:51:34.334Z,13.14
2022-08-29T04:54:03.600Z,13.25
2022-08-29T04:56:31.197Z,13.21
2022-08-29T04:58:58.555Z,13.23
2022-08-29T05:01:27.281Z,13.32
2022-08-29T05:03:55.581Z,13.38
2022-08-29T05:06:24.322Z,13.41
2022-08-29T05:08:59.037Z,13.48
2022-08-29T05:11:29.268Z,13.62
2022-08-29T05:13:56.585Z,13.78
2022-08-29T05:16:23.718Z,13.75
2022-08-29T05:18:50.806Z,13.86
2022-08-29T05:21:33.977Z,13.75
2022-08-29T05:24:07.179Z,13.92
2022-08-29T05:26:41.404Z,13.66
2022-08-29T05:29:12.080Z,13.86
2022-08-29T05:31:41.821Z,13.90
2022-08-29T05:34:32.253Z,13.86
2022-08-29T05:36:58.491Z,13.96
2022-08-29T05:39:25.480Z,13.85
2022-08-29T05:41:57.336Z,14.05
2022-08-29T05:44:32.920Z,14.21
2022-08-29T05:47:06.097Z,14.09
2022-08-29T05:49:35.245Z,13.84
2022-08-29T05:52:02.342Z,14.03
2022-08-29T05:54:32.119Z,14.31
2022-08-29T05:56:59.085Z,14.32
2022-08-29T05:59:26.124Z,14.49
2022-08-29T06:01:53.172Z,14.46
2022-08-29T06:04:20.367Z,14.56
2022-08-29T06:06:47.470Z,14.83
2022-08-29T06:09:15.295Z,14.96
2022-08-29T06:11:46.009Z,14.91
2022-08-29T06:14:15.243Z,15.07
2022-08-29T06:16:42.627Z,15.17
2022-08-29T06:19:10.005Z,15.36
2022-08-29T06:21:37.428Z,15.38
2022-08-29T06:24:06.286Z,15.36
2022-08-29T06:26:34.297Z,15.41
2022-08-29T06:29:05.981Z,15.37
2022-08-29T06:31:33.068Z,15.36
2022-08-29T06:34:05.138Z,15.54
2022-08-29T06:36:33.725Z,15.37
2022-08-29T06:39:09.726Z,15.43
2022-08-29T06:41:40.286Z,15.55
2022-08-29T06:44:09.211Z,15.81
2022-08-29T06:46:48.587Z,16.03
2022-08-29T06:49:19.038Z,16.12
2022-08-29T06:51:54.132Z,16.16
2022-08-29T06:54:28.129Z,15.99
2022-08-29T06:56:56.680Z,16.16
2022-08-29T06:59:24.335Z,16.30
2022-08-29T07:01:51.664Z,16.20
2022-08-29T07:04:20.559Z,16.30
2022-08-29T07:06:49.172Z,15.59
2022-08-29T07:09:16.756Z,16.06
2022-08-29T07:11:43.980Z,16.16
2022-08-29T07:14:12.716Z,16.08
2022-08-29T07:16:41.640Z,16.07
2022-08-29T07:19:10.377Z,16.31
2022-08-29T07:21:38.548Z,16.43
2022-08-29T07:24:07.987Z,16.54
2022-08-29T07:26:44.745Z,16.74
2022-08-29T07:29:20.633Z,16.85
2022-08-29T07:31:48.810Z,16.90
2022-08-29T07:34:20.423Z,16.90
2022-08-29T07:36:48.253Z,17.08
2022-08-29T07:39:19.051Z,17.23
2022-08-29T07:41:46.583Z,17.15
2022-08-29T07:44:14.475Z,17.25
2022-08-29T07:46:44.165Z,17.34
2022-08-29T07:49:12.374Z,17.26
2022-08-29T07:51:42.328Z,17.33
2022-08-29T07:54:16.479Z,17.38
2022-08-29T07:56:43.774Z,17.58
2022-08-29T07:59:10.897Z,18.10
2022-08-29T08:01:38.808Z,17.92
2022-08-29T08:04:06.519Z,18.03
2022-08-29T08:06:36.729Z,18.23
2022-08-29T08:09:09.120Z,18.20
2022-08-29T08:11:39.226Z,18.31
2022-08-29T08:14:06.629Z,18.37
2022-08-29T08:16:34.138Z,18.08
2022-08-29T08:19:01.935Z,18.21
2022-08-29T08:21:30.369Z,18.16
2022-08-29T08:23:57.889Z,17.92
2022-08-29T08:26:25.176Z,18.24
2022-08-29T08:28:53.520Z,18.44
2022-08-29T08:31:23.451Z,18.03
2022-08-29T08:33:51.934Z,18.17
2022-08-29T08:36:30.832Z,17.99
2022-08-29T08:39:02.645Z,18.08
2022-08-29T08:42:04.317Z,18.38
2022-08-29T08:45:03.391Z,18.39
2022-08-29T08:48:13.878Z,18.42
2022-08-29T08:51:30.670Z,18.44
2022-08-29T08:53:59.504Z,18.47
2022-08-29T08:56:35.102Z,18.51
2022-08-29T08:59:34.646Z,18.45
2022-08-29T09:02:35.157Z,18.47
2022-08-29T09:05:20.209Z,18.32
2022-08-29T09:08:12.353Z,18.45
2022-08-29T09:11:12.333Z,18.44
2022-08-29T09:14:14.558Z,18.13
2022-08-29T09:16:52.315Z,18.87
2022-08-29T09:19:19.323Z,18.83
2022-08-29T09:22:07.705Z,19.08
2022-08-29T09:25:00.758Z,19.31
2022-08-29T09:27:33.857Z,19.32
2022-08-29T09:30:20.437Z,19.68
2022-08-29T09:33:04.310Z,19.68
2022-08-29T09:35:51.846Z,19.05
2022-08-29T09:38:26.600Z,19.38
2022-08-29T09:41:10.659Z,19.84
2022-08-29T09:43:40.614Z,19.87
2022-08-29T09:46:26.655Z,19.41
2022-08-29T09:48:59.416Z,19.54
2022-08-29T09:51:35.760Z,19.65
2022-08-29T09:54:22.875Z,19.69
2022-08-29T09:57:03.209Z,19.54
2022-08-29T09:59:49.011Z,19.82
2022-08-29T10:02:32.649Z,20.05
2022-08-29T10:05:13.053Z,19.43
2022-08-29T10:07:54.794Z,18.78
2022-08-29T10:10:30.228Z,18.91
2022-08-29T10:13:37.018Z,19.38
2022-08-29T10:16:33.357Z,19.68
2022-08-29T10:19:42.435Z,19.66
2022-08-29T10:26:34.617Z,19.38
2022-08-29T10:29:17.278Z,19.49
2022-08-29T10:33:05.354Z,19.67
2022-08-29T10:39:58.847Z,20.42
2022-08-29T10:43:55.377Z,20.59
2022-08-29T10:47:22.589Z,20.46
2022-08-29T10:53:36.837Z,20.84
2022-08-29T10:57:23.380Z,21.47
2022-08-29T11:00:11.306Z,21.86
2022-08-29T11:03:04.817Z,21.45
2022-08-29T11:05:53.701Z,21.95
2022-08-29T11:09:14.651Z,21.88
2022-08-29T11:13:11.197Z,22.16
2022-08-29T11:16:27.962Z,22.12
2022-08-29T11:19:58.160Z,22.23
2022-08-29T11:23:32.073Z,22.19
2022-08-29T11:26:52.662Z,21.69
2022-08-29T11:30:02.867Z,21.97
2022-08-29T11:33:46.591Z,22.66
2022-08-29T11:37:14.282Z,22.09
2022-08-29T11:39:59.063Z,22.30
2022-08-29T11:43:04.055Z,22.19
2022-08-29T11:45:58.300Z,22.06
2022-08-29T11:49:14.570Z,21.99
2022-08-29T11:51:52.680Z,21.41
2022-08-29T11:55:38.711Z,21.32
2022-08-29T11:58:25.301Z,21.37
2022-08-29T12:01:34.918Z,20.79
2022-08-29T12:04:10.886Z,20.97
2022-08-29T12:07:19.804Z,21.17
2022-08-29T12:10:00.358Z,21.35
2022-08-29T12:13:08.010Z,21.03
2022-08-29T12:18:36.567Z,21.58
2022-08-29T12:21:45.354Z,21.50
2022-08-29T12:24:43.161Z,21.70
2022-08-29T12:32:41.238Z,21.40
2022-08-29T12:35:42.273Z,21.66
2022-08-29T12:39:09.848Z,21.85
2022-08-29T12:42:13.536Z,21.99
2022-08-29T12:45:15.464Z,21.74
2022-08-29T12:48:00.067Z,21.98
2022-08-29T12:52:03.473Z,22.20
2022-08-29T12:53:56.142Z,21.70
2022-08-29T12:56:57.170Z,21.63
2022-08-29T12:59:51.024Z,21.89
2022-08-29T13:02:41.758Z,22.13
2022-08-29T13:05:35.283Z,22.23
2022-08-29T13:08:15.887Z,22.22
2022-08-29T13:11:11.388Z,22.29
2022-08-29T13:13:49.399Z,22.27
2022-08-29T13:16:45.590Z,22.41
2022-08-29T13:19:25.164Z,22.27
2022-08-29T13:22:04.245Z,21.79
2022-08-29T13:25:10.057Z,21.85
2022-08-29T13:27:37.830Z,22.20
2022-08-29T13:30:10.205Z,22.11
2022-08-29T13:32:54.998Z,22.24
2022-08-29T13:35:39.005Z,21.91
2022-08-29T13:38:55.695Z,21.93
2022-08-29T13:41:31.944Z,21.99
2022-08-29T13:44:04.983Z,23.13
2022-08-29T13:46:47.597Z,23.19
2022-08-29T13:49:35.440Z,23.63
2022-08-29T13:52:06.945Z,22.81
2022-08-29T13:54:35.762Z,23.35
2022-08-29T13:57:08.074Z,22.59
2022-08-29T13:59:43.992Z,22.85
2022-08-29T14:02:14.802Z,23.03
2022-08-29T14:04:48.505Z,22.91
2022-08-29T14:07:32.218Z,23.25
2022-08-29T14:10:04.191Z,23.55
2022-08-29T14:12:33.763Z,24.51
2022-08-29T14:15:10.675Z,25.14
2022-08-29T14:17:47.529Z,24.06
2022-08-29T14:20:18.621Z,24.03
2022-08-29T14:22:51.571Z,24.64
2022-08-29T14:25:20.841Z,24.45
2022-08-29T14:27:49.139Z,24.22
2022-08-29T14:30:27.215Z,23.51
2022-08-29T14:32:54.604Z,23.31
2022-08-29T14:35:32.166Z,23.17
2022-08-29T14:38:02.134Z,23.42
2022-08-29T14:40:42.995Z,23.90
2022-08-29T14:43:11.284Z,23.99
2022-08-29T14:45:38.594Z,24.89
2022-08-29T14:48:06.480Z,25.34
2022-08-29T14:50:42.406Z,24.15
2022-08-29T14:53:15.230Z,24.08
2022-08-29T14:55:42.582Z,24.07
2022-08-29T14:58:09.608Z,23.97
2022-08-29T15:00:37.123Z,23.99
2022-08-29T15:03:04.694Z,23.70
2022-08-29T15:05:32.149Z,23.62
2022-08-29T15:08:08.980Z,23.45
2022-08-29T15:10:37.442Z,23.79
2022-08-29T15:13:07.201Z,24.43
2022-08-29T15:15:35.029Z,24.16
2022-08-29T15:18:06.878Z,24.09
2022-08-29T15:20:40.137Z,23.80
2022-08-29T15:23:19.153Z,23.63
2022-08-29T15:25:52.016Z,23.57
2022-08-29T15:28:20.806Z,23.04
2022-08-29T15:30:54.016Z,23.40
2022-08-29T15:33:23.298Z,23.84
2022-08-29T15:35:51.958Z,23.22
2022-08-29T15:38:19.413Z,23.61
2022-08-29T15:40:46.497Z,23.00
2022-08-29T15:43:13.748Z,22.71
2022-08-29T15:45:40.903Z,22.69
2022-08-29T15:48:11.935Z,22.69
2022-08-29T15:50:42.351Z,22.95
2022-08-29T15:53:09.619Z,23.15
2022-08-29T15:55:44.204Z,23.03
2022-08-29T15:58:11.781Z,22.82
2022-08-29T16:00:41.387Z,22.99
2022-08-29T16:03:11.274Z,22.99
2022-08-29T16:05:40.191Z,22.85
2022-08-29T16:08:25.913Z,22.66
2022-08-29T16:10:56.948Z,22.66
2022-08-29T16:13:24.123Z,22.65
2022-08-29T16:15:51.395Z,22.50
2022-08-29T16:18:19.017Z,22.67
2022-08-29T16:20:46.087Z,23.06
2022-08-29T16:23:13.202Z,23.27
2022-08-29T16:25:42.184Z,23.42
2022-08-29T16:28:11.714Z,23.23
2022-08-29T16:30:44.388Z,22.90
2022-08-29T16:33:13.685Z,22.68
2022-08-29T16:35:41.331Z,22.57
2022-08-29T16:38:08.635Z,22.62
2022-08-29T16:43:04.193Z,22.20
2022-08-29T16:45:31.734Z,22.05
2022-08-29T16:48:00.008Z,21.98
2022-08-29T16:50:28.731Z,21.92
2022-08-29T16:52:56.398Z,21.83
2022-08-29T16:55:24.368Z,21.87
2022-08-29T16:58:10.304Z,21.83
2022-08-29T17:00:40.002Z,22.00
2022-08-29T17:03:07.834Z,21.77
2022-08-29T17:05:35.178Z,21.93
2022-08-29T17:08:05.576Z,21.89
2022-08-29T17:10:32.669Z,21.90
2022-08-29T17:12:59.882Z,21.92
2022-08-29T17:15:29.614Z,21.58
2022-08-29T17:17:56.631Z,21.65
2022-08-29T17:20:24.374Z,21.55
2022-08-29T17:22:52.257Z,21.48
2022-08-29T17:25:21.152Z,21.55
2022-08-29T17:28:07.468Z,21.44
2022-08-29T17:30:36.667Z,21.51
2022-08-29T17:33:04.256Z,21.32
2022-08-29T17:35:31.270Z,21.25
2022-08-29T17:37:58.605Z,21.19
2022-08-29T17:40:26.076Z,21.06
2022-08-29T17:42:53.619Z,21.02
2022-08-29T17:45:20.691Z,20.90
2022-08-29T17:47:47.802Z,20.83
2022-08-29T17:50:14.774Z,20.71
2022-08-29T17:52:41.806Z,20.74
2022-08-29T17:55:09.431Z,20.69
2022-08-29T17:57:36.532Z,20.55
2022-08-29T18:00:07.582Z,20.28
2022-08-29T18:02:35.108Z,20.20
2022-08-29T18:05:02.511Z,19.78
2022-08-29T18:07:29.882Z,19.64
2022-08-29T18:09:59.263Z,19.51
2022-08-29T18:12:26.332Z,19.54
2022-08-29T18:14:54.853Z,19.64
2022-08-29T18:17:21.953Z,19.65
2022-08-29T18:19:49.004Z,19.66
2022-08-29T18:22:16.058Z,19.54
2022-08-29T18:24:43.159Z,19.51
2022-08-29T18:27:10.221Z,19.51
2022-08-29T18:29:37.236Z,19.47
2022-08-29T18:32:04.621Z,19.37
2022-08-29T18:34:31.634Z,19.36
2022-08-29T18:36:58.642Z,19.28
2022-08-29T18:39:25.864Z,19.22
2022-08-29T18:41:52.816Z,19.05
2022-08-29T18:44:19.899Z,18.81
2022-08-29T18:46:51.682Z,18.40
2022-08-29T18:49:19.871Z,18.23
2022-08-29T18:51:47.188Z,18.34
2022-08-29T18:54:18.760Z,18.38
2022-08-29T18:56:46.749Z,18.48
2022-08-29T18:59:13.729Z,18.59
2022-08-29T19:01:42.632Z,18.57
2022-08-29T19:04:09.673Z,18.44
2022-08-29T19:06:36.631Z,18.45
2022-08-29T19:09:03.830Z,18.50
2022-08-29T19:11:31.573Z,18.53
2022-08-29T19:13:58.594Z,18.54
2022-08-29T19:16:25.662Z,18.52
2022-08-29T19:18:52.786Z,18.27
2022-08-29T19:21:19.948Z,18.36
2022-08-29T19:23:52.206Z,18.31
2022-08-29T19:26:28.160Z,18.20
2022-08-29T19:28:59.208Z,18.04
2022-08-29T19:31:28.003Z,18.04
2022-08-29T19:33:55.298Z,18.02
2022-08-29T19:36:23.429Z,18.08
2022-08-29T19:38:53.568Z,17.99
2022-08-29T19:41:20.866Z,17.99
2022-08-29T19:43:48.799Z,18.06
2022-08-29T19:46:23.038Z,17.99
2022-08-29T19:48:52.327Z,17.93
2022-08-29T19:51:24.922Z,17.94
2022-08-29T19:53:56.581Z,17.88
2022-08-29T19:56:28.455Z,17.89
2022-08-29T19:58:56.777Z,17.74
2022-08-29T20:01:24.181Z,17.73
2022-08-29T20:03:53.934Z,17.76
2022-08-29T20:06:21.495Z,17.66
2022-08-29T20:08:48.671Z,17.68
2022-08-29T20:11:24.475Z,17.61
2022-08-29T20:13:57.614Z,17.58
2022-08-29T20:16:31.285Z,17.55
2022-08-29T20:18:59.098Z,17.53
2022-08-29T20:21:26.625Z,17.66
2022-08-29T20:23:58.229Z,17.68
2022-08-29T20:26:31.409Z,17.67
2022-08-29T20:29:02.007Z,17.69
2022-08-29T20:31:29.889Z,17.74
2022-08-29T20:33:57.198Z,17.71
2022-08-29T20:36:43.780Z,17.48
2022-08-29T20:39:16.993Z,17.52
2022-08-29T20:41:55.644Z,17.14
2022-08-29T20:44:31.508Z,17.07
2022-08-29T20:47:00.747Z,16.99
2022-08-29T20:49:27.813Z,17.15
2022-08-29T20:51:54.933Z,17.30
2022-08-29T20:54:24.954Z,17.27
2022-08-29T20:56:54.552Z,17.08
2022-08-29T20:59:26.463Z,17.11
2022-08-29T21:01:55.365Z,17.10
2022-08-29T21:04:41.872Z,17.12
2022-08-29T21:07:15.057Z,17.13
2022-08-29T21:09:46.346Z,17.00
2022-08-29T21:12:14.754Z,16.97
2022-08-29T21:14:42.310Z,17.06
2022-08-29T21:17:11.564Z,17.06
2022-08-29T21:19:39.787Z,17.18
2022-08-29T21:22:10.001Z,17.10
2022-08-29T21:24:37.114Z,17.08
2022-08-29T21:27:04.636Z,17.03
2022-08-29T21:29:31.866Z,17.00
2022-08-29T21:31:58.955Z,16.94
2022-08-29T21:34:26.274Z,16.64
2022-08-29T21:36:54.355Z,16.68
2022-08-29T21:39:28.607Z,16.54
2022-08-29T21:41:57.810Z,16.52
2022-08-29T21:44:27.939Z,16.59
2022-08-29T21:46:55.000Z,16.52
2022-08-29T21:49:22.090Z,16.36
2022-08-29T21:51:50.093Z,16.52
2022-08-29T21:54:18.344Z,16.52
2022-08-29T21:56:46.539Z,16.51
2022-08-29T21:59:15.172Z,16.48
2022-08-29T22:01:45.459Z,16.28
2022-08-29T22:04:19.151Z,16.33
2022-08-29T22:06:54.710Z,16.35
2022-08-29T22:09:21.804Z,16.34
2022-08-29T22:11:49.235Z,16.37
2022-08-29T22:14:16.263Z,16.43
2022-08-29T22:16:43.589Z,16.41
2022-08-29T22:19:17.629Z,16.19
2022-08-29T22:21:53.760Z,15.86
2022-08-29T22:24:20.864Z,15.72
2022-08-29T22:26:48.163Z,15.78
2022-08-29T22:29:15.916Z,15.95
2022-08-29T22:31:44.816Z,15.98
2022-08-29T22:34:17.526Z,15.72
2022-08-29T22:36:45.480Z,15.72
2022-08-29T22:39:12.530Z,15.67
2022-08-29T22:41:42.112Z,15.34
2022-08-29T22:47:00.325Z,15.44
2022-08-29T22:49:33.403Z,15.49
2022-08-29T22:52:01.067Z,15.65
2022-08-29T22:54:37.209Z,15.77
2022-08-29T22:57:13.658Z,15.77
2022-08-29T22:59:42.756Z,15.81
2022-08-29T23:02:12.296Z,15.58
2022-08-29T23:04:40.456Z,15.27
2022-08-29T23:07:08.719Z,14.89
2022-08-29T23:09:41.793Z,14.72
2022-08-29T23:12:12.789Z,14.56
2022-08-29T23:14:43.164Z,14.58
2022-08-29T23:17:10.238Z,14.56
2022-08-29T23:19:40.945Z,14.63
2022-08-29T23:22:10.151Z,14.49
2022-08-29T23:24:39.243Z,14.56
2022-08-29T23:27:08.367Z,14.66
2022-08-29T23:29:37.000Z,14.64
2022-08-29T23:32:09.065Z,14.55
2022-08-29T23:34:36.013Z,14.69
2022-08-29T23:37:03.089Z,14.65
2022-08-29T23:39:30.168Z,14.41
2022-08-29T23:41:59.728Z,14.12
2022-08-29T23:44:26.684Z,13.96
2022-08-29T23:46:56.621Z,13.80
2022-08-29T23:49:23.920Z,13.99
2022-08-29T23:51:51.261Z,14.11
2022-08-29T23:54:19.258Z,14.24
2022-08-29T23:56:46.294Z,14.16
2022-08-29T23:59:33.256Z,14.10
